KNRB

Mayport NS (Adm David L McDonald Field) Airport

Mayport, Florida, USA
METAR KNRB 151852Z 28003KT 10SM FEW150 OVC200 18/11 A2997 RMK AO2 SLP147 T01830111
Observed Flight Rules
Feb-15 @ 18:52 UTC (36 minutes ago) Visual Flight Rules
Wind Visibility Clouds
280° at 3 knots 10 miles
  • Few at 15,000' AGL
  • Overcast at 20,000' AGL
Temperatures Readings
Current 18°C / 64°F
Dewpoint 11°C / 52°F
Humidity 64%
Altimeter 29.97" Hg
Pressure 1014.7 hPa
Elevation 5
METAR KNRB 151852Z 28003KT 10SM FEW150 OVC200 18/11 A2997 RMK AO2 SLP147 T01830111
Observed Flight Rules
Feb-15 @ 18:52 UTC
(36 minutes ago)
VFR
Wind Visibility
280° at 3 knots 10 miles
Clouds
  • Few at 15,000' AGL
  • Overcast at 20,000' AGL
Temperature Dewpoint
18°C / 64°F 11°C / 52°F
Humidity Altimeter Pressure
64% 29.97" Hg 1014.7 hPa